createdAt,value
2018-05-10T00:02:00.999Z,18.00
2018-05-10T00:04:29.359Z,18.00
2018-05-10T00:06:57.706Z,17.90
2018-05-10T00:09:26.064Z,17.90
2018-05-10T00:11:54.508Z,17.80
2018-05-10T00:14:23.219Z,17.80
2018-05-10T00:16:51.557Z,17.80
2018-05-10T00:19:19.916Z,17.70
2018-05-10T00:21:49.268Z,17.60
2018-05-10T00:24:18.439Z,17.60
2018-05-10T00:26:46.896Z,17.50
2018-05-10T00:29:16.178Z,17.50
2018-05-10T00:31:44.534Z,17.50
2018-05-10T00:34:12.871Z,17.50
2018-05-10T00:36:42.031Z,17.40
2018-05-10T00:39:10.383Z,17.40
2018-05-10T00:41:38.728Z,17.40
2018-05-10T00:44:07.322Z,17.40
2018-05-10T00:46:35.725Z,17.30
2018-05-10T00:49:04.069Z,17.20
2018-05-10T00:51:32.606Z,17.10
2018-05-10T00:54:00.954Z,17.10
2018-05-10T00:56:29.337Z,17.10
2018-05-10T00:58:57.687Z,17.10
2018-05-10T01:01:26.807Z,17.10
2018-05-10T01:03:55.202Z,17.00
2018-05-10T01:06:23.550Z,17.10
2018-05-10T01:08:51.949Z,17.10
2018-05-10T01:11:20.294Z,17.00
2018-05-10T01:13:49.504Z,17.00
2018-05-10T01:16:17.853Z,16.90
2018-05-10T01:18:46.219Z,16.90
2018-05-10T01:21:14.742Z,16.80
2018-05-10T01:23:43.307Z,16.80
2018-05-10T01:26:11.647Z,16.70
2018-05-10T01:28:40.503Z,16.70
2018-05-10T01:31:09.119Z,16.70
2018-05-10T01:33:37.517Z,16.60
2018-05-10T01:36:11.855Z,16.60
2018-05-10T01:38:40.249Z,16.60
2018-05-10T01:41:08.675Z,16.60
2018-05-10T01:43:37.043Z,16.60
2018-05-10T01:46:05.407Z,16.60
2018-05-10T01:48:33.846Z,16.60
2018-05-10T01:51:02.210Z,16.60
2018-05-10T01:53:30.567Z,16.60
2018-05-10T01:55:58.939Z,16.50
2018-05-10T01:58:27.322Z,16.50
2018-05-10T02:00:55.755Z,16.50
2018-05-10T02:03:24.082Z,16.50
2018-05-10T02:05:52.466Z,16.40
2018-05-10T02:08:20.856Z,16.40
2018-05-10T02:10:49.190Z,16.40
2018-05-10T02:13:18.415Z,16.20
2018-05-10T02:15:47.310Z,16.20
2018-05-10T02:18:15.675Z,16.20
2018-05-10T02:20:44.035Z,16.20
2018-05-10T02:23:13.166Z,16.00
2018-05-10T02:25:41.527Z,16.00
2018-05-10T02:28:09.875Z,16.00
2018-05-10T02:30:38.983Z,16.10
2018-05-10T02:33:08.104Z,16.10
2018-05-10T02:35:36.452Z,16.10
2018-05-10T02:38:05.722Z,16.10
2018-05-10T02:40:34.076Z,16.10
2018-05-10T02:43:02.423Z,16.10
2018-05-10T02:45:31.612Z,16.00
2018-05-10T02:48:00.812Z,16.00
2018-05-10T02:50:29.941Z,16.00
2018-05-10T02:52:58.308Z,16.00
2018-05-10T02:55:26.672Z,16.00
2018-05-10T02:57:55.792Z,15.90
2018-05-10T03:00:24.163Z,15.90
2018-05-10T03:02:52.552Z,15.90
2018-05-10T03:05:21.019Z,16.00
2018-05-10T03:07:49.370Z,15.90
2018-05-10T03:10:17.756Z,15.90
2018-05-10T03:12:46.132Z,15.90
2018-05-10T03:15:15.250Z,15.70
2018-05-10T03:17:43.855Z,15.70
2018-05-10T03:20:12.745Z,15.70
2018-05-10T03:22:41.123Z,15.60
2018-05-10T03:25:09.868Z,15.60
2018-05-10T03:27:38.349Z,15.50
2018-05-10T03:30:07.496Z,15.50
2018-05-10T03:32:35.894Z,15.50
2018-05-10T03:35:04.294Z,15.50
2018-05-10T03:37:32.671Z,15.50
2018-05-10T03:40:01.020Z,15.50
2018-05-10T03:42:29.388Z,15.50
2018-05-10T03:44:57.777Z,15.50
2018-05-10T03:47:26.156Z,15.50
2018-05-10T03:49:54.697Z,15.50
2018-05-10T03:52:23.066Z,15.60
2018-05-10T03:54:51.812Z,15.60
2018-05-10T03:57:20.207Z,15.60
2018-05-10T03:59:48.573Z,15.60
2018-05-10T04:02:17.437Z,15.60
2018-05-10T04:08:01.101Z,15.70
2018-05-10T04:10:41.362Z,15.70
2018-05-10T04:13:09.855Z,15.70
2018-05-10T04:15:38.395Z,15.80
2018-05-10T04:18:06.766Z,15.80
2018-05-10T04:20:35.187Z,15.80
2018-05-10T04:23:03.529Z,15.80
2018-05-10T04:25:31.910Z,15.90
2018-05-10T04:28:01.162Z,16.00
2018-05-10T04:30:29.847Z,16.00
2018-05-10T04:32:58.181Z,16.00
2018-05-10T04:35:27.293Z,16.10
2018-05-10T04:37:55.844Z,16.10
2018-05-10T04:40:24.564Z,16.20
2018-05-10T04:42:53.259Z,16.30
2018-05-10T04:45:21.741Z,16.40
2018-05-10T04:47:50.311Z,16.50
2018-05-10T04:50:18.694Z,16.60
2018-05-10T04:52:47.087Z,16.60
2018-05-10T04:55:15.473Z,16.70
2018-05-10T04:57:43.863Z,16.70
2018-05-10T05:00:12.338Z,16.80
2018-05-10T05:02:40.733Z,16.80
2018-05-10T05:05:09.078Z,16.80
2018-05-10T05:07:37.482Z,16.90
2018-05-10T05:10:05.866Z,16.90
2018-05-10T05:12:34.826Z,16.90
2018-05-10T05:15:03.207Z,16.90
2018-05-10T05:17:31.880Z,17.00
2018-05-10T05:20:00.290Z,17.00
2018-05-10T05:22:28.667Z,17.10
2018-05-10T05:24:57.020Z,17.10
2018-05-10T05:27:25.427Z,17.20
2018-05-10T05:29:53.781Z,17.20
2018-05-10T05:32:22.241Z,17.40
2018-05-10T05:34:50.613Z,17.50
2018-05-10T05:37:19.229Z,17.60
2018-05-10T05:39:48.608Z,17.90
2018-05-10T05:42:16.937Z,17.90
2018-05-10T05:44:45.279Z,18.10
2018-05-10T05:47:14.605Z,18.40
2018-05-10T05:49:43.167Z,18.40
2018-05-10T05:52:11.558Z,18.60
2018-05-10T05:54:39.973Z,18.70
2018-05-10T05:57:08.473Z,18.80
2018-05-10T05:59:37.127Z,18.90
2018-05-10T06:02:05.667Z,18.90
2018-05-10T06:04:34.077Z,19.00
2018-05-10T06:07:02.442Z,19.10
2018-05-10T06:09:30.822Z,19.20
2018-05-10T06:11:59.181Z,19.30
2018-05-10T06:14:28.350Z,19.50
2018-05-10T06:16:56.878Z,19.50
2018-05-10T06:19:26.037Z,19.70
2018-05-10T06:21:54.688Z,19.70
2018-05-10T06:24:23.067Z,19.80
2018-05-10T06:26:51.436Z,19.80
2018-05-10T06:29:19.814Z,19.80
2018-05-10T06:31:48.442Z,19.90
2018-05-10T06:34:16.797Z,19.90
2018-05-10T06:36:45.139Z,20.10
2018-05-10T06:39:13.579Z,20.20
2018-05-10T06:41:41.932Z,20.30
2018-05-10T06:44:10.530Z,20.40
2018-05-10T06:46:40.035Z,20.60
2018-05-10T06:49:08.595Z,20.60
2018-05-10T06:51:36.972Z,20.80
2018-05-10T06:54:05.335Z,20.90
2018-05-10T06:56:34.559Z,21.20
2018-05-10T06:59:04.083Z,21.40
2018-05-10T07:01:32.458Z,21.30
2018-05-10T07:04:00.829Z,21.50
2018-05-10T07:06:29.285Z,21.60
2018-05-10T07:08:58.323Z,21.60
2018-05-10T07:11:27.015Z,21.60
2018-05-10T07:13:55.642Z,21.60
2018-05-10T07:16:24.782Z,21.70
2018-05-10T07:18:53.971Z,21.70
2018-05-10T07:21:22.383Z,21.70
2018-05-10T07:23:50.903Z,21.70
2018-05-10T07:26:20.407Z,21.90
2018-05-10T07:28:49.530Z,21.90
2018-05-10T07:31:17.950Z,21.80
2018-05-10T07:33:47.472Z,21.80
2018-05-10T07:36:15.919Z,21.80
2018-05-10T07:38:44.524Z,21.90
2018-05-10T07:41:13.843Z,22.00
2018-05-10T07:43:42.688Z,22.00
2018-05-10T07:46:11.371Z,22.10
2018-05-10T07:48:39.708Z,22.00
2018-05-10T07:51:08.233Z,22.00
2018-05-10T07:53:36.561Z,22.10
2018-05-10T07:56:04.928Z,22.10
2018-05-10T07:58:33.267Z,22.20
2018-05-10T08:01:01.995Z,22.30
2018-05-10T08:03:30.369Z,22.40
2018-05-10T08:05:59.432Z,22.50
2018-05-10T08:08:27.792Z,22.50
2018-05-10T08:10:56.463Z,22.60
2018-05-10T08:13:24.901Z,22.60
2018-05-10T08:15:53.252Z,22.70
2018-05-10T08:18:21.706Z,22.80
2018-05-10T08:20:50.075Z,22.90
2018-05-10T08:23:18.431Z,22.80
2018-05-10T08:25:46.803Z,22.90
2018-05-10T08:28:15.149Z,23.00
2018-05-10T08:30:43.614Z,23.00
2018-05-10T08:33:11.986Z,23.10
2018-05-10T08:35:40.397Z,23.20
2018-05-10T08:38:08.743Z,23.30
2018-05-10T08:40:37.109Z,23.40
2018-05-10T08:43:06.252Z,23.60
2018-05-10T08:45:34.602Z,23.50
2018-05-10T08:48:03.001Z,23.60
2018-05-10T08:50:31.361Z,23.70
2018-05-10T08:52:59.841Z,23.60
2018-05-10T08:55:29.187Z,23.90
2018-05-10T08:57:57.536Z,23.90
2018-05-10T09:00:26.116Z,24.10
2018-05-10T09:02:54.480Z,24.20
2018-05-10T09:05:24.020Z,24.30
2018-05-10T09:07:52.364Z,24.20
2018-05-10T09:10:20.738Z,24.30
2018-05-10T09:12:49.873Z,24.60
2018-05-10T09:15:18.204Z,24.50
2018-05-10T09:17:47.333Z,24.70
2018-05-10T09:20:15.707Z,24.70
2018-05-10T09:22:44.815Z,25.00
2018-05-10T09:25:13.157Z,25.00
2018-05-10T09:27:42.275Z,25.50
2018-05-10T09:30:10.619Z,25.50
2018-05-10T09:32:39.098Z,25.70
2018-05-10T09:35:08.238Z,25.90
2018-05-10T09:37:37.242Z,25.80
2018-05-10T09:40:05.586Z,25.30
2018-05-10T09:42:34.710Z,25.30
2018-05-10T09:45:03.086Z,25.30
2018-05-10T09:47:31.443Z,25.20
2018-05-10T09:50:00.556Z,25.20
2018-05-10T09:52:28.927Z,25.10
2018-05-10T09:54:57.322Z,25.00
2018-05-10T09:57:25.687Z,25.40
2018-05-10T09:59:54.222Z,25.60
2018-05-10T10:02:22.568Z,25.50
2018-05-10T10:04:50.945Z,25.50
2018-05-10T10:07:19.323Z,25.50
2018-05-10T10:09:47.715Z,25.40
2018-05-10T10:12:16.099Z,26.00
2018-05-10T10:14:44.470Z,26.30
2018-05-10T10:17:12.875Z,26.10
2018-05-10T10:19:42.096Z,25.40
2018-05-10T10:22:10.455Z,25.40
2018-05-10T10:24:38.894Z,25.10
2018-05-10T10:27:07.297Z,24.90
2018-05-10T10:29:35.664Z,24.90
2018-05-10T10:32:04.005Z,24.20
2018-05-10T10:34:33.167Z,24.20
2018-05-10T10:37:01.494Z,24.20
2018-05-10T10:39:30.404Z,24.00
2018-05-10T10:41:58.752Z,24.30
2018-05-10T10:44:27.877Z,25.00
2018-05-10T10:46:56.822Z,25.00
2018-05-10T10:49:25.189Z,25.80
2018-05-10T10:51:53.630Z,26.20
2018-05-10T10:54:21.983Z,26.30
2018-05-10T10:56:51.127Z,26.00
2018-05-10T10:59:19.522Z,26.00
2018-05-10T11:01:48.006Z,25.40
2018-05-10T11:04:16.407Z,25.40
2018-05-10T11:06:45.596Z,25.00
2018-05-10T11:09:13.966Z,25.00
2018-05-10T11:11:42.306Z,24.80
2018-05-10T11:14:10.788Z,24.80
2018-05-10T11:16:39.171Z,24.30
2018-05-10T11:19:07.538Z,24.50
2018-05-10T11:21:35.985Z,24.80
2018-05-10T11:24:04.402Z,24.80
2018-05-10T11:26:32.741Z,24.80
2018-05-10T11:29:01.863Z,25.40
2018-05-10T11:31:30.315Z,25.30
2018-05-10T11:33:58.759Z,25.40
2018-05-10T11:36:27.126Z,25.50
2018-05-10T11:38:55.483Z,25.90
2018-05-10T11:41:23.895Z,26.10
2018-05-10T11:43:52.239Z,26.50
2018-05-10T11:46:20.599Z,26.40
2018-05-10T11:48:49.745Z,26.00
2018-05-10T11:51:18.162Z,26.00
2018-05-10T11:53:46.505Z,25.60
2018-05-10T11:56:14.859Z,25.10
2018-05-10T11:58:43.258Z,24.70
2018-05-10T12:01:11.645Z,24.60
2018-05-10T12:03:40.016Z,24.50
2018-05-10T12:06:08.401Z,24.60
2018-05-10T12:08:36.739Z,24.20
2018-05-10T12:11:06.235Z,23.60
2018-05-10T12:13:34.687Z,23.60
2018-05-10T12:16:03.188Z,23.40
2018-05-10T12:18:31.907Z,23.40
2018-05-10T12:21:00.340Z,23.20
2018-05-10T12:23:28.847Z,22.90
2018-05-10T12:25:59.612Z,22.70
2018-05-10T12:28:28.011Z,22.70
2018-05-10T12:30:56.385Z,22.70
2018-05-10T12:33:24.769Z,22.50
2018-05-10T12:35:53.146Z,22.50
2018-05-10T12:38:21.520Z,22.40
2018-05-10T12:40:49.887Z,22.30
2018-05-10T12:43:18.261Z,22.20
2018-05-10T12:45:46.610Z,22.10
2018-05-10T12:48:15.174Z,22.10
2018-05-10T12:50:43.650Z,22.00
2018-05-10T12:53:12.001Z,21.90
2018-05-10T12:55:40.541Z,21.70
2018-05-10T12:58:08.896Z,21.60
2018-05-10T13:00:37.497Z,21.60
2018-05-10T13:03:06.704Z,21.40
2018-05-10T13:05:35.179Z,21.30
2018-05-10T13:08:03.548Z,21.20
2018-05-10T13:10:32.016Z,20.90
2018-05-10T13:13:00.410Z,20.80
2018-05-10T13:15:28.766Z,20.70
2018-05-10T13:17:57.315Z,20.70
2018-05-10T13:20:26.555Z,20.40
2018-05-10T13:22:55.054Z,20.40
2018-05-10T13:25:23.515Z,20.30
2018-05-10T13:27:51.879Z,20.20
2018-05-10T13:30:20.221Z,20.10
2018-05-10T13:32:49.388Z,19.90
2018-05-10T13:35:17.734Z,19.90
2018-05-10T13:37:46.307Z,19.80
2018-05-10T13:40:14.671Z,19.80
2018-05-10T13:42:43.034Z,19.70
2018-05-10T13:45:12.184Z,19.60
2018-05-10T13:47:40.629Z,19.60
2018-05-10T13:50:08.986Z,19.50
2018-05-10T13:52:38.112Z,19.50
2018-05-10T13:55:06.487Z,19.40
2018-05-10T13:57:34.869Z,19.50
2018-05-10T14:00:03.271Z,19.50
2018-05-10T14:02:31.653Z,19.50
2018-05-10T14:05:00.947Z,19.80
2018-05-10T14:07:29.306Z,19.80
2018-05-10T14:09:57.667Z,19.90
2018-05-10T14:12:26.968Z,19.70
2018-05-10T14:14:55.414Z,19.70
2018-05-10T14:17:23.764Z,19.60
2018-05-10T14:19:52.146Z,19.40
2018-05-10T14:22:20.523Z,19.70
2018-05-10T14:24:48.905Z,19.70
2018-05-10T14:27:17.258Z,19.70
2018-05-10T14:29:46.451Z,19.60
2018-05-10T14:32:15.608Z,19.70
2018-05-10T14:34:43.958Z,19.70
2018-05-10T14:37:12.374Z,19.80
2018-05-10T14:39:40.839Z,20.10
2018-05-10T14:42:09.177Z,20.40
2018-05-10T14:44:37.587Z,20.60
2018-05-10T14:47:05.956Z,20.40
2018-05-10T14:49:34.558Z,19.90
2018-05-10T14:52:03.125Z,19.70
2018-05-10T14:54:31.782Z,19.20
2018-05-10T14:57:00.495Z,19.10
2018-05-10T14:59:30.787Z,18.90
2018-05-10T15:02:00.149Z,18.40
2018-05-10T15:04:28.578Z,18.40
2018-05-10T15:06:57.810Z,18.30
2018-05-10T15:09:26.298Z,18.30
2018-05-10T15:11:54.641Z,18.30
2018-05-10T15:14:23.778Z,18.10
2018-05-10T15:16:52.215Z,18.10
2018-05-10T15:19:20.590Z,17.90
2018-05-10T15:21:48.920Z,17.70
2018-05-10T15:24:17.297Z,17.60
2018-05-10T15:26:45.725Z,17.40
2018-05-10T15:29:14.076Z,17.40
2018-05-10T15:31:42.551Z,17.30
2018-05-10T15:34:10.879Z,17.40
2018-05-10T15:36:39.228Z,17.40
2018-05-10T15:39:07.708Z,17.30
2018-05-10T15:41:36.130Z,17.30
2018-05-10T15:44:04.474Z,17.20
2018-05-10T15:46:32.810Z,17.20
2018-05-10T15:49:01.143Z,17.10
2018-05-10T15:51:29.487Z,17.20
2018-05-10T15:53:57.841Z,17.30
2018-05-10T15:56:26.220Z,17.20
2018-05-10T15:58:54.657Z,17.10
2018-05-10T16:01:23.811Z,16.90
2018-05-10T16:03:52.156Z,16.90
2018-05-10T16:06:20.549Z,17.00
2018-05-10T16:08:48.891Z,17.00
2018-05-10T16:11:18.153Z,16.90
2018-05-10T16:13:46.488Z,16.90
2018-05-10T16:16:14.903Z,17.00
2018-05-10T16:18:43.256Z,17.10
2018-05-10T16:21:11.759Z,17.10
2018-05-10T16:23:40.140Z,17.10
2018-05-10T16:26:08.484Z,17.00
2018-05-10T16:28:36.835Z,17.00
2018-05-10T16:31:05.265Z,17.00
2018-05-10T16:33:33.665Z,16.80
2018-05-10T16:36:02.751Z,16.80
2018-05-10T16:38:31.101Z,16.80
2018-05-10T16:40:59.461Z,16.70
2018-05-10T16:43:28.790Z,16.60
2018-05-10T16:45:57.131Z,16.60
2018-05-10T16:48:25.565Z,16.60
2018-05-10T16:50:53.898Z,16.60
2018-05-10T16:53:23.273Z,16.30
2018-05-10T16:55:51.617Z,16.40
2018-05-10T16:58:19.967Z,16.40
2018-05-10T17:00:49.098Z,16.40
2018-05-10T17:03:17.460Z,16.30
2018-05-10T17:05:45.858Z,16.30
2018-05-10T17:08:14.235Z,16.30
2018-05-10T17:10:42.810Z,16.40
2018-05-10T17:13:11.153Z,16.40
2018-05-10T17:15:40.403Z,16.40
2018-05-10T17:18:09.499Z,16.30
2018-05-10T17:20:37.929Z,16.40
2018-05-10T17:23:06.295Z,16.40
2018-05-10T17:25:34.637Z,16.30
2018-05-10T17:28:03.018Z,16.10
2018-05-10T17:30:31.552Z,16.10
2018-05-10T17:33:00.137Z,16.00
2018-05-10T17:35:28.486Z,16.00
2018-05-10T17:37:57.348Z,15.90
2018-05-10T17:40:25.715Z,16.00
2018-05-10T17:42:54.240Z,16.00
2018-05-10T17:45:22.880Z,16.10
2018-05-10T17:47:51.709Z,16.00
2018-05-10T17:50:20.138Z,16.00
2018-05-10T17:52:48.558Z,16.00
2018-05-10T17:55:17.141Z,15.90
2018-05-10T17:57:46.373Z,15.80
2018-05-10T18:00:14.783Z,15.90
2018-05-10T18:02:43.401Z,15.90
2018-05-10T18:05:11.786Z,15.90
2018-05-10T18:07:40.262Z,15.90
2018-05-10T18:10:08.872Z,15.90
2018-05-10T18:12:37.234Z,15.90
2018-05-10T18:15:06.580Z,15.90
2018-05-10T18:17:34.971Z,15.80
2018-05-10T18:20:04.269Z,15.60
2018-05-10T18:22:33.664Z,15.50
2018-05-10T18:25:02.014Z,15.50
2018-05-10T18:27:30.460Z,15.40
2018-05-10T18:29:58.787Z,15.30
2018-05-10T18:32:27.233Z,15.30
2018-05-10T18:34:55.809Z,15.30
2018-05-10T18:37:24.172Z,15.30
2018-05-10T18:39:52.524Z,15.30
2018-05-10T18:42:21.633Z,15.20
2018-05-10T18:44:49.995Z,15.20
2018-05-10T18:47:18.350Z,15.20
2018-05-10T18:49:46.683Z,15.20
2018-05-10T18:52:15.068Z,15.10
2018-05-10T18:54:43.472Z,15.10
2018-05-10T18:57:12.014Z,15.00
2018-05-10T18:59:41.196Z,15.00
2018-05-10T19:02:09.620Z,15.00
2018-05-10T19:04:37.974Z,14.90
2018-05-10T19:07:06.307Z,14.80
2018-05-10T19:09:34.667Z,14.70
2018-05-10T19:12:03.095Z,14.70
2018-05-10T19:14:31.470Z,14.60
2018-05-10T19:16:59.825Z,14.60
2018-05-10T19:19:28.150Z,14.60
2018-05-10T19:21:56.532Z,14.60
2018-05-10T19:24:24.907Z,14.50
2018-05-10T19:26:53.307Z,14.50
2018-05-10T19:29:21.688Z,14.40
2018-05-10T19:31:50.039Z,14.30
2018-05-10T19:34:19.215Z,14.20
2018-05-10T19:36:47.580Z,14.20
2018-05-10T19:39:15.916Z,14.30
2018-05-10T19:41:44.307Z,14.20
2018-05-10T19:44:12.635Z,14.30
2018-05-10T19:46:41.852Z,14.30
2018-05-10T19:49:11.074Z,14.30
2018-05-10T19:51:39.524Z,14.30
2018-05-10T19:54:08.686Z,14.30
2018-05-10T19:56:37.132Z,14.30
2018-05-10T19:59:05.379Z,14.30
2018-05-10T20:01:34.516Z,14.20
2018-05-10T20:04:02.858Z,14.20
2018-05-10T20:06:31.957Z,14.20
2018-05-10T20:09:00.303Z,14.10
2018-05-10T20:11:28.808Z,14.20
2018-05-10T20:13:57.939Z,14.20
2018-05-10T20:16:26.291Z,14.20
2018-05-10T20:18:55.575Z,14.20
2018-05-10T20:21:23.920Z,14.20
2018-05-10T20:23:52.311Z,14.20
2018-05-10T20:26:20.675Z,14.10
2018-05-10T20:28:49.089Z,14.10
2018-05-10T20:31:17.450Z,14.10
2018-05-10T20:33:45.808Z,14.10
2018-05-10T20:36:14.164Z,14.10
2018-05-10T20:38:42.518Z,14.10
2018-05-10T20:41:11.622Z,14.00
2018-05-10T20:43:39.975Z,14.00
2018-05-10T20:46:08.347Z,14.10
2018-05-10T20:48:36.827Z,14.00
2018-05-10T20:51:05.178Z,14.00
2018-05-10T20:53:33.546Z,14.00
2018-05-10T20:56:01.944Z,14.00
2018-05-10T20:58:31.019Z,13.90
2018-05-10T21:00:59.400Z,13.90
2018-05-10T21:03:27.742Z,13.80
2018-05-10T21:05:56.094Z,13.80
2018-05-10T21:08:24.536Z,13.80
2018-05-10T21:10:52.889Z,13.90
2018-05-10T21:13:21.402Z,13.80
2018-05-10T21:15:49.747Z,13.90
2018-05-10T21:18:18.875Z,13.80
2018-05-10T21:20:47.220Z,13.80
2018-05-10T21:23:16.470Z,13.80
2018-05-10T21:25:44.681Z,13.70
2018-05-10T21:28:13.095Z,13.80
2018-05-10T21:30:42.215Z,13.70
2018-05-10T21:33:10.753Z,13.70
2018-05-10T21:35:39.232Z,13.70
2018-05-10T21:38:07.568Z,13.70
2018-05-10T21:40:35.923Z,13.80
2018-05-10T21:43:04.263Z,13.80
2018-05-10T21:45:32.712Z,13.70
2018-05-10T21:48:01.033Z,13.80
2018-05-10T21:50:30.151Z,13.80
2018-05-10T21:52:58.623Z,13.80
2018-05-10T21:55:26.971Z,13.80
2018-05-10T21:57:55.347Z,13.70
2018-05-10T22:00:23.708Z,13.70
2018-05-10T22:02:52.066Z,13.70
2018-05-10T22:05:20.400Z,13.80
2018-05-10T22:07:48.768Z,13.70
2018-05-10T22:10:17.877Z,13.70
2018-05-10T22:12:47.048Z,13.60
2018-05-10T22:15:15.510Z,13.60
2018-05-10T22:17:43.882Z,13.60
2018-05-10T22:20:12.256Z,13.60
2018-05-10T22:22:40.635Z,13.60
2018-05-10T22:25:09.791Z,13.60
2018-05-10T22:27:38.890Z,13.60
2018-05-10T22:30:07.508Z,13.60
2018-05-10T22:32:36.152Z,13.60
2018-05-10T22:35:04.514Z,13.60
2018-05-10T22:37:32.863Z,13.60
2018-05-10T22:40:01.198Z,13.50
2018-05-10T22:42:30.942Z,13.60
2018-05-10T22:44:59.307Z,13.60
2018-05-10T22:47:27.649Z,13.60
2018-05-10T22:49:56.024Z,13.50
2018-05-10T22:52:24.385Z,13.50
2018-05-10T22:54:52.793Z,13.40
2018-05-10T22:57:21.150Z,13.40
2018-05-10T22:59:49.693Z,13.40
2018-05-10T23:02:17.944Z,13.40
2018-05-10T23:04:46.308Z,13.40
2018-05-10T23:07:14.735Z,13.40
2018-05-10T23:09:43.139Z,13.40
2018-05-10T23:12:12.256Z,13.50
2018-05-10T23:14:40.559Z,13.40
2018-05-10T23:17:09.762Z,13.40
2018-05-10T23:19:38.902Z,13.50
2018-05-10T23:22:07.268Z,13.40
2018-05-10T23:24:35.746Z,13.50
2018-05-10T23:27:04.098Z,13.40
2018-05-10T23:29:33.350Z,13.30
2018-05-10T23:32:01.686Z,13.30
2018-05-10T23:34:30.045Z,13.40
2018-05-10T23:36:58.470Z,13.40
2018-05-10T23:39:26.817Z,13.40
2018-05-10T23:41:55.170Z,13.30
2018-05-10T23:44:23.539Z,13.20
2018-05-10T23:46:51.990Z,13.20
2018-05-10T23:49:20.370Z,13.20
2018-05-10T23:51:48.742Z,13.10
2018-05-10T23:54:17.171Z,13.10
2018-05-10T23:56:45.698Z,13.00
2018-05-10T23:59:14.121Z,13.00
